createdAt,value
2017-11-12T00:06:15.709Z,1000.62
2017-11-12T00:16:15.706Z,1000.53
2017-11-12T00:26:15.715Z,1000.49
2017-11-12T00:36:15.741Z,1000.47
2017-11-12T00:46:15.727Z,1000.44
2017-11-12T00:56:15.749Z,1000.36
2017-11-12T01:06:15.749Z,1000.27
2017-11-12T01:16:15.776Z,1000.22
2017-11-12T01:26:15.768Z,1000.19
2017-11-12T01:36:15.759Z,1000.17
2017-11-12T01:46:15.762Z,1000.17
2017-11-12T01:56:15.838Z,1000.12
2017-11-12T02:06:15.920Z,999.95
2017-11-12T02:16:15.865Z,999.79
2017-11-12T02:26:15.922Z,999.62
2017-11-12T02:36:25.808Z,999.57
2017-11-12T02:46:18.195Z,999.51
2017-11-12T02:56:15.893Z,999.53
2017-11-12T03:06:15.948Z,999.44
2017-11-12T03:16:15.921Z,999.48
2017-11-12T03:26:15.874Z,999.35
2017-11-12T03:36:15.954Z,999.18
2017-11-12T03:46:15.898Z,999.07
2017-11-12T03:56:15.964Z,999
2017-11-12T04:06:15.936Z,998.99
2017-11-12T04:16:16.000Z,998.82
2017-11-12T04:26:15.964Z,998.74
2017-11-12T04:36:15.977Z,998.51
2017-11-12T04:46:15.973Z,998.5
2017-11-12T04:56:15.931Z,998.19
2017-11-12T05:06:15.990Z,998.06
2017-11-12T05:16:15.972Z,997.84
2017-11-12T05:26:16.008Z,997.86
2017-11-12T05:36:15.984Z,997.64
2017-11-12T05:46:15.964Z,997.49
2017-11-12T05:56:15.989Z,997.19
2017-11-12T06:06:16.074Z,996.89
2017-11-12T06:16:16.029Z,996.61
2017-11-12T06:26:15.998Z,996.39
2017-11-12T06:36:16.055Z,996.13
2017-11-12T06:46:16.129Z,996.21
2017-11-12T06:56:16.081Z,995.92
2017-11-12T07:06:16.028Z,995.68
2017-11-12T07:16:16.125Z,995.59
2017-11-12T07:26:16.056Z,995.56
2017-11-12T07:36:16.133Z,995.4
2017-11-12T07:46:16.068Z,995.42
2017-11-12T07:56:16.153Z,995.34
2017-11-12T08:06:16.094Z,995.18
2017-11-12T08:16:16.188Z,995.12
2017-11-12T08:26:16.137Z,995.13
2017-11-12T08:36:16.113Z,994.99
2017-11-12T08:46:16.161Z,994.85
2017-11-12T08:56:16.076Z,994.79
2017-11-12T09:06:16.091Z,994.64
2017-11-12T09:16:16.107Z,994.34
2017-11-12T09:26:16.135Z,994.17
2017-11-12T09:36:16.121Z,994.07
2017-11-12T09:46:16.131Z,993.8
2017-11-12T09:56:16.131Z,993.69
2017-11-12T10:06:16.246Z,993.43
2017-11-12T10:16:16.144Z,993.22
2017-11-12T10:26:16.244Z,993.16
2017-11-12T10:36:16.170Z,992.96
2017-11-12T10:46:16.188Z,992.76
2017-11-12T10:56:16.198Z,992.72
2017-11-12T11:06:16.225Z,992.5
2017-11-12T11:16:16.228Z,992.32
2017-11-12T11:26:16.203Z,992.26
2017-11-12T11:36:16.215Z,992.21
2017-11-12T11:46:16.229Z,992.09
2017-11-12T11:56:16.225Z,991.95
2017-11-12T12:06:16.261Z,991.93
2017-11-12T12:16:16.257Z,992.04
2017-11-12T12:26:16.271Z,991.92
2017-11-12T12:36:16.270Z,991.85
2017-11-12T12:46:16.262Z,991.7
2017-11-12T12:56:16.281Z,991.67
2017-11-12T13:06:16.281Z,991.7
2017-11-12T13:16:16.300Z,991.61
2017-11-12T13:26:16.312Z,991.52
2017-11-12T13:36:16.313Z,991.53
2017-11-12T13:46:16.333Z,991.56
2017-11-12T13:56:16.325Z,991.53
2017-11-12T14:06:16.338Z,991.57
2017-11-12T14:16:16.349Z,991.59
2017-11-12T14:26:16.354Z,991.7
2017-11-12T14:36:16.368Z,991.73
2017-11-12T14:46:16.375Z,991.79
2017-11-12T14:56:16.380Z,991.81
2017-11-12T15:06:16.392Z,991.81
2017-11-12T15:16:16.428Z,991.91
2017-11-12T15:26:16.415Z,991.94
2017-11-12T15:36:16.411Z,991.97
2017-11-12T15:46:16.558Z,992.11
2017-11-12T15:56:17.508Z,992.22
2017-11-12T16:06:16.491Z,992.33
2017-11-12T16:16:16.536Z,992.53
2017-11-12T16:26:16.482Z,992.76
2017-11-12T16:36:16.560Z,992.93
2017-11-12T16:46:17.100Z,993.08
2017-11-12T16:56:16.592Z,993.27
2017-11-12T17:06:16.552Z,993.37
2017-11-12T17:16:16.611Z,993.55
2017-11-12T17:26:17.217Z,993.73
2017-11-12T17:36:16.517Z,993.98
2017-11-12T17:46:17.664Z,994.16
2017-11-12T17:56:16.570Z,994.35
2017-11-12T18:06:16.630Z,994.6
2017-11-12T18:16:16.574Z,994.94
2017-11-12T18:26:17.581Z,995.11
2017-11-12T18:36:16.602Z,995.27
2017-11-12T18:46:21.232Z,995.35
2017-11-12T18:56:16.581Z,995.56
2017-11-12T19:06:17.637Z,995.76
2017-11-12T19:16:16.967Z,996
2017-11-12T19:26:16.701Z,996.23
2017-11-12T19:36:17.738Z,996.49
2017-11-12T19:46:16.868Z,996.67
2017-11-12T19:56:16.851Z,996.83
2017-11-12T20:06:17.683Z,996.99
2017-11-12T20:16:17.971Z,997.02
2017-11-12T20:26:16.700Z,997.2
2017-11-12T20:36:16.711Z,997.44
2017-11-12T20:46:19.070Z,997.7
2017-11-12T20:56:17.781Z,997.78
2017-11-12T21:06:16.856Z,998.02
2017-11-12T21:16:16.859Z,998.07
2017-11-12T21:26:17.359Z,998.23
2017-11-12T21:36:17.698Z,998.34
2017-11-12T21:46:16.820Z,998.5
2017-11-12T21:56:18.176Z,998.6
2017-11-12T22:06:21.724Z,998.73
2017-11-12T22:16:17.823Z,998.98
2017-11-12T22:26:16.859Z,999.12
2017-11-12T22:36:16.791Z,999.31
2017-11-12T22:46:17.019Z,999.53
2017-11-12T22:56:16.818Z,999.66
2017-11-12T23:06:16.772Z,999.76
2017-11-12T23:16:16.834Z,999.83
2017-11-12T23:26:16.902Z,999.94
2017-11-12T23:36:16.795Z,1000.06
2017-11-12T23:46:16.819Z,1000.14
2017-11-12T23:56:16.878Z,1000.17
